Time;durP1;ratioP1;P1;durP2;ratioP2;P2;SDS_P1;SDS_P2;PMS_P1;PMS_P2;Temp;Humidity;BMP_temperature;BMP_pressure;BME280_temperature;BME280_humidity;BME280_pressure;Samples;Min_cycle;Max_cycle;Signal;HPM_P1;HPM_P2
2022/09/17 00:02:09;;;;;;;6.00;3.05;;;;;;;;;;10531827;28;20060;-78
2022/09/17 00:07:21;;;;;;;9.95;4.60;;;;;;;;;;10512807;28;20044;-78
2022/09/17 00:12:27;;;;;;;9.75;5.07;;;;;;;;;;10502940;28;20056;-79
2022/09/17 00:17:31;;;;;;;8.57;3.50;;;;;;;;;;10517786;28;20102;-78
2022/09/17 00:23:00;;;;;;;10.40;4.47;;;;;;;;;;10511055;28;20040;-77
2022/09/17 00:28:11;;;;;;;6.33;3.33;;;;;;;;;;10496601;28;20036;-78
2022/09/17 00:33:22;;;;;;;9.27;4.00;;;;;;;;;;10486284;28;20349;-78
2022/09/17 00:38:36;;;;;;;5.80;2.70;;;;;;;;;;10515562;28;20051;-78
2022/09/17 00:43:44;;;;;;;3.67;1.80;;;;;;;;;;10493778;28;20152;-78
2022/09/17 00:48:51;;;;;;;5.03;2.35;;;;;;;;;;10527851;28;20631;-79
2022/09/17 00:54:05;;;;;;;3.83;2.00;;;;;;;;;;10513272;28;20044;-79
2022/09/17 00:59:11;;;;;;;5.55;2.55;;;;;;;;;;10528927;28;20035;-80
2022/09/17 01:04:22;;;;;;;6.82;2.47;;;;;;;;;;10516931;28;20505;-79
2022/09/17 01:09:37;;;;;;;3.28;1.77;;;;;;;;;;10520068;28;20211;-77
2022/09/17 01:14:52;;;;;;;4.07;2.15;;;;;;;;;;10528168;28;20409;-78
2022/09/17 01:20:12;;;;;;;5.20;1.80;;;;;;;;;;10522844;28;20493;-79
2022/09/17 01:25:45;;;;;;;3.13;1.95;;;;;;;;;;10521398;28;20042;-78
2022/09/17 01:31:22;;;;;;;3.67;2.08;;;;;;;;;;10519222;28;20553;-79
2022/09/17 01:36:42;;;;;;;4.65;1.90;;;;;;;;;;10520849;28;20139;-78
2022/09/17 01:41:53;;;;;;;4.22;1.88;;;;;;;;;;10510220;28;20125;-78
2022/09/17 01:47:18;;;;;;;4.00;1.95;;;;;;;;;;10513910;28;20044;-78
2022/09/17 01:52:40;;;;;;;3.75;1.85;;;;;;;;;;10494927;28;20038;-79
2022/09/17 01:57:52;;;;;;;4.85;1.70;;;;;;;;;;10520703;28;20044;-79
2022/09/17 02:03:02;;;;;;;3.90;2.08;;;;;;;;;;10521575;28;20028;-78
2022/09/17 02:08:14;;;;;;;1.52;1.30;;;;;;;;;;10538981;28;20123;-78
2022/09/17 02:13:33;;;;;;;3.47;1.70;;;;;;;;;;10531806;28;20051;-78
2022/09/17 02:18:52;;;;;;;2.38;1.38;;;;;;;;;;10493042;28;20421;-78
2022/09/17 02:24:08;;;;;;;2.20;1.20;;;;;;;;;;10524417;28;20040;-78
2022/09/17 02:29:25;;;;;;;3.85;1.73;;;;;;;;;;10524358;28;20043;-79
2022/09/17 02:34:37;;;;;;;2.17;1.40;;;;;;;;;;10505302;28;20504;-78
2022/09/17 02:39:57;;;;;;;3.40;1.20;;;;;;;;;;10524460;28;20477;-78
2022/09/17 02:45:12;;;;;;;8.23;2.70;;;;;;;;;;10525632;28;20062;-79
2022/09/17 02:50:28;;;;;;;2.53;1.20;;;;;;;;;;10524570;28;20083;-78
2022/09/17 02:55:46;;;;;;;2.72;1.42;;;;;;;;;;10527221;28;20047;-78
2022/09/17 03:00:56;;;;;;;1.83;1.48;;;;;;;;;;10535560;28;20170;-77
2022/09/17 03:06:03;;;;;;;1.20;1.00;;;;;;;;;;10510650;28;20052;-78
2022/09/17 03:11:27;;;;;;;4.38;1.40;;;;;;;;;;10520037;28;20048;-78
2022/09/17 03:16:48;;;;;;;5.07;1.33;;;;;;;;;;10527888;28;20492;-77
2022/09/17 03:22:05;;;;;;;1.90;1.08;;;;;;;;;;10498615;28;20047;-78
2022/09/17 03:27:19;;;;;;;1.67;1.10;;;;;;;;;;10536467;28;20311;-78
2022/09/17 03:32:38;;;;;;;2.80;1.15;;;;;;;;;;10540184;28;20037;-78
2022/09/17 03:37:46;;;;;;;1.83;1.23;;;;;;;;;;10539189;28;20048;-78
2022/09/17 03:43:06;;;;;;;4.13;1.35;;;;;;;;;;10515068;28;20036;-79
2022/09/17 03:48:31;;;;;;;2.85;1.20;;;;;;;;;;10497420;28;20492;-79
2022/09/17 03:53:46;;;;;;;2.30;1.58;;;;;;;;;;10518467;28;20044;-79
2022/09/17 03:59:01;;;;;;;2.83;1.35;;;;;;;;;;10526529;28;20039;-78
2022/09/17 04:04:12;;;;;;;1.95;1.42;;;;;;;;;;10516615;28;20054;-79
2022/09/17 04:09:21;;;;;;;1.83;1.30;;;;;;;;;;10521321;28;20062;-79
2022/09/17 04:14:41;;;;;;;4.22;1.63;;;;;;;;;;10522469;28;20432;-78
2022/09/17 04:19:52;;;;;;;3.38;1.80;;;;;;;;;;10500387;28;20159;-78
2022/09/17 04:25:06;;;;;;;4.32;1.85;;;;;;;;;;10527079;28;20417;-79
2022/09/17 04:30:19;;;;;;;2.42;1.33;;;;;;;;;;10535646;28;20052;-77
2022/09/17 04:35:35;;;;;;;3.17;1.70;;;;;;;;;;10543276;28;20429;-78
2022/09/17 04:40:42;;;;;;;3.40;1.90;;;;;;;;;;10498485;28;20048;-79
2022/09/17 04:46:13;;;;;;;1.90;1.40;;;;;;;;;;10487549;28;20123;-79
2022/09/17 04:51:40;;;;;;;2.47;1.58;;;;;;;;;;10531576;28;20405;-78
2022/09/17 04:56:49;;;;;;;4.28;1.52;;;;;;;;;;10514884;28;20039;-78
2022/09/17 05:02:08;;;;;;;2.28;1.50;;;;;;;;;;10506542;28;20097;-79
2022/09/17 05:07:17;;;;;;;1.65;0.95;;;;;;;;;;10525706;28;20036;-78
2022/09/17 05:12:36;;;;;;;4.18;1.70;;;;;;;;;;10533761;28;20123;-78
2022/09/17 05:17:44;;;;;;;4.60;1.70;;;;;;;;;;10506180;28;20087;-78
2022/09/17 05:22:56;;;;;;;3.65;1.85;;;;;;;;;;10513194;28;20040;-78
2022/09/17 05:28:03;;;;;;;4.57;2.05;;;;;;;;;;10486591;28;20101;-79
2022/09/17 05:33:09;;;;;;;1.65;1.40;;;;;;;;;;10531493;28;20043;-78
2022/09/17 05:38:19;;;;;;;5.00;1.70;;;;;;;;;;10507799;28;20506;-78
2022/09/17 05:43:27;;;;;;;5.15;1.63;;;;;;;;;;10521203;28;20538;-79
2022/09/17 05:48:34;;;;;;;4.50;1.90;;;;;;;;;;10522950;28;20384;-78
2022/09/17 05:53:50;;;;;;;2.33;1.40;;;;;;;;;;10530212;28;20166;-78
2022/09/17 05:59:07;;;;;;;5.80;1.30;;;;;;;;;;10525711;28;20580;-78
2022/09/17 06:04:14;;;;;;;4.93;1.25;;;;;;;;;;10536435;28;20666;-78
2022/09/17 06:09:24;;;;;;;1.58;1.40;;;;;;;;;;10529446;28;20730;-78
2022/09/17 06:14:30;;;;;;;2.83;1.50;;;;;;;;;;10524205;28;20104;-78
2022/09/17 06:19:38;;;;;;;3.75;1.55;;;;;;;;;;10496242;28;20055;-78
2022/09/17 06:24:47;;;;;;;2.65;1.42;;;;;;;;;;10519169;28;20036;-78
2022/09/17 06:29:56;;;;;;;4.32;1.27;;;;;;;;;;10534445;28;20040;-78
2022/09/17 06:35:02;;;;;;;6.25;1.92;;;;;;;;;;10536303;28;20044;-78
2022/09/17 06:40:17;;;;;;;3.15;1.75;;;;;;;;;;10521361;28;20124;-79
2022/09/17 06:45:26;;;;;;;4.53;1.63;;;;;;;;;;10534740;28;20039;-79
2022/09/17 06:50:31;;;;;;;3.75;0.85;;;;;;;;;;10542565;28;20051;-79
2022/09/17 06:55:47;;;;;;;4.20;1.30;;;;;;;;;;10564100;28;20024;-79
2022/09/17 07:00:53;;;;;;;3.75;1.17;;;;;;;;;;10574975;28;20028;-79
2022/09/17 07:06:00;;;;;;;2.78;1.40;;;;;;;;;;10553359;28;20063;-79
2022/09/17 07:11:11;;;;;;;3.60;1.35;;;;;;;;;;10575679;28;20077;-78
2022/09/17 07:16:17;;;;;;;7.82;3.85;;;;;;;;;;10565863;28;20040;-78
2022/09/17 07:21:24;;;;;;;7.32;1.40;;;;;;;;;;10541745;28;20056;-78
2022/09/17 07:26:40;;;;;;;3.38;1.10;;;;;;;;;;10520394;28;20469;-80
2022/09/17 07:37:06;;;;;;;2.53;1.30;;;;;;;;;;10523663;28;20056;-80
2022/09/17 07:42:16;;;;;;;3.97;1.10;;;;;;;;;;10523164;28;20083;-78
2022/09/17 07:47:24;;;;;;;4.07;1.40;;;;;;;;;;10512092;28;20036;-79
2022/09/17 07:52:48;;;;;;;3.97;1.40;;;;;;;;;;10518629;28;20072;-79
2022/09/17 07:58:03;;;;;;;3.28;1.73;;;;;;;;;;10524463;28;20056;-80
2022/09/17 08:03:16;;;;;;;3.43;1.30;;;;;;;;;;10534114;28;20428;-79
2022/09/17 08:08:29;;;;;;;2.00;0.90;;;;;;;;;;10529619;28;20044;-80
2022/09/17 08:13:37;;;;;;;5.53;1.52;;;;;;;;;;10505963;28;20230;-80
2022/09/17 08:18:47;;;;;;;3.50;1.10;;;;;;;;;;10517514;28;20547;-79
2022/09/17 08:24:04;;;;;;;4.68;1.30;;;;;;;;;;10513848;28;20469;-80
2022/09/17 08:34:36;;;;;;;3.97;0.90;;;;;;;;;;10511593;28;20408;-79
2022/09/17 08:39:46;;;;;;;1.40;0.82;;;;;;;;;;10515219;28;20135;-81
2022/09/17 08:45:08;;;;;;;5.20;1.00;;;;;;;;;;10481733;28;20052;-80
2022/09/17 08:50:19;;;;;;;4.28;1.52;;;;;;;;;;10495179;28;20032;-79
2022/09/17 08:55:32;;;;;;;1.25;0.70;;;;;;;;;;10497791;28;20439;-80
2022/09/17 09:00:43;;;;;;;6.95;1.30;;;;;;;;;;10503383;28;20043;-80
2022/09/17 09:05:56;;;;;;;2.35;0.85;;;;;;;;;;10488330;28;20122;-78
2022/09/17 09:11:24;;;;;;;4.88;1.38;;;;;;;;;;10504295;28;20122;-79
2022/09/17 09:16:40;;;;;;;9.13;1.27;;;;;;;;;;10512658;28;20044;-78
2022/09/17 09:22:12;;;;;;;2.78;1.00;;;;;;;;;;10520847;28;20052;-79
2022/09/17 09:27:26;;;;;;;5.85;1.60;;;;;;;;;;10485560;28;20564;-79
2022/09/17 09:32:53;;;;;;;2.90;1.35;;;;;;;;;;10505098;28;20067;-80
2022/09/17 09:38:06;;;;;;;6.95;1.20;;;;;;;;;;10499947;28;20070;-80
2022/09/17 09:43:23;;;;;;;7.03;1.63;;;;;;;;;;10516311;28;20072;-80
2022/09/17 09:48:47;;;;;;;5.68;1.30;;;;;;;;;;10522500;28;20102;-80
2022/09/17 09:54:03;;;;;;;3.03;1.23;;;;;;;;;;10516461;28;20048;-79
2022/09/17 09:59:12;;;;;;;4.85;1.40;;;;;;;;;;10499020;28;20060;-79
2022/09/17 10:04:20;;;;;;;4.68;1.77;;;;;;;;;;10492962;28;20036;-79
2022/09/17 10:14:52;;;;;;;7.35;2.10;;;;;;;;;;10510633;28;20143;-80
2022/09/17 10:20:20;;;;;;;5.85;1.85;;;;;;;;;;10520452;28;20254;-79
2022/09/17 10:25:31;;;;;;;7.18;2.05;;;;;;;;;;10523261;28;20040;-80
2022/09/17 10:30:56;;;;;;;8.23;2.33;;;;;;;;;;10489893;28;20044;-79
2022/09/17 10:36:05;;;;;;;5.07;2.30;;;;;;;;;;10527189;28;20102;-78
2022/09/17 10:41:20;;;;;;;3.25;1.60;;;;;;;;;;10516718;28;20047;-78
2022/09/17 10:46:32;;;;;;;;;;;;;;;;;;10511344;28;20571;-79
2022/09/17 10:51:46;;;;;;;2.72;1.00;;;;;;;;;;10525417;28;19965;-79
2022/09/17 10:56:54;;;;;;;3.57;1.20;;;;;;;;;;10516581;28;20547;-79
2022/09/17 11:02:05;;;;;;;1.05;0.80;;;;;;;;;;10511035;28;20486;-78
2022/09/17 11:07:20;;;;;;;4.85;1.17;;;;;;;;;;10497232;28;20036;-79
2022/09/17 11:12:26;;;;;;;;;;;;;;;;;;10497862;28;20387;-79
2022/09/17 11:17:40;;;;;;;5.72;1.40;;;;;;;;;;10519424;28;20060;-79
2022/09/17 11:23:03;;;;;;;3.30;1.20;;;;;;;;;;10513396;28;20113;-79
2022/09/17 11:28:31;;;;;;;1.75;1.00;;;;;;;;;;10487953;28;20497;-80
2022/09/17 11:34:04;;;;;;;2.33;1.10;;;;;;;;;;10504690;28;20511;-79
2022/09/17 11:39:20;;;;;;;1.55;0.90;;;;;;;;;;10518541;28;20058;-80
2022/09/17 11:44:26;;;;;;;5.13;2.03;;;;;;;;;;10522241;28;20029;-79
2022/09/17 11:49:34;;;;;;;5.78;1.50;;;;;;;;;;10516274;28;20043;-79
2022/09/17 11:54:45;;;;;;;4.28;1.20;;;;;;;;;;10522953;28;20036;-79
2022/09/17 12:00:00;;;;;;;4.38;1.17;;;;;;;;;;10528773;28;20114;-79
2022/09/17 12:05:08;;;;;;;3.15;1.48;;;;;;;;;;10512088;28;20048;-79
2022/09/17 12:10:43;;;;;;;2.42;1.20;;;;;;;;;;10504711;28;20044;-79
2022/09/17 12:16:01;;;;;;;7.10;1.33;;;;;;;;;;10515818;28;20071;-81
2022/09/17 12:21:08;;;;;;;3.05;1.40;;;;;;;;;;10502143;28;20416;-80
2022/09/17 12:26:39;;;;;;;3.67;2.60;;;;;;;;;;10524738;28;20139;-80
2022/09/17 12:31:59;;;;;;;2.15;0.88;;;;;;;;;;10482647;28;20471;-80
2022/09/17 12:37:11;;;;;;;1.90;0.88;;;;;;;;;;10492788;28;20275;-79
2022/09/17 12:42:36;;;;;;;2.20;1.00;;;;;;;;;;10498232;28;20043;-79
2022/09/17 12:47:59;;;;;;;1.90;1.05;;;;;;;;;;10519318;28;20067;-79
2022/09/17 12:53:34;;;;;;;4.75;1.10;;;;;;;;;;10520909;28;20056;-79
2022/09/17 12:59:04;;;;;;;4.25;1.20;;;;;;;;;;10524778;28;20064;-79
2022/09/17 13:04:17;;;;;;;3.58;1.40;;;;;;;;;;10517749;28;20099;-79
2022/09/17 13:09:47;;;;;;;2.38;1.15;;;;;;;;;;10521761;28;20075;-80
2022/09/17 13:15:17;;;;;;;3.55;1.27;;;;;;;;;;10525628;28;20052;-80
2022/09/17 13:20:26;;;;;;;2.78;1.60;;;;;;;;;;10549871;28;20170;-80
2022/09/17 13:26:03;;;;;;;5.25;1.80;;;;;;;;;;10543314;28;20062;-79
2022/09/17 13:31:13;;;;;;;3.47;1.27;;;;;;;;;;10520274;28;20058;-81
2022/09/17 13:36:55;;;;;;;2.05;1.30;;;;;;;;;;10511659;28;20051;-80
2022/09/17 13:42:13;;;;;;;1.33;0.88;;;;;;;;;;10488598;28;20334;-78
2022/09/17 13:47:36;;;;;;;1.73;1.08;;;;;;;;;;10487038;28;20331;-80
2022/09/17 13:52:44;;;;;;;2.20;1.15;;;;;;;;;;10504457;28;20085;-79
2022/09/17 13:57:57;;;;;;;4.20;1.20;;;;;;;;;;10505842;28;20051;-79
2022/09/17 14:03:25;;;;;;;5.65;1.70;;;;;;;;;;10506038;28;20201;-79
2022/09/17 14:08:33;;;;;;;3.72;1.60;;;;;;;;;;10506292;28;20437;-78
2022/09/17 14:13:46;;;;;;;4.53;1.23;;;;;;;;;;10505021;28;20093;-79
2022/09/17 14:19:21;;;;;;;4.32;1.13;;;;;;;;;;10501890;28;20504;-79
2022/09/17 14:24:31;;;;;;;2.85;0.98;;;;;;;;;;10508771;28;20129;-79
2022/09/17 14:29:59;;;;;;;1.02;0.70;;;;;;;;;;10516748;28;20061;-78
2022/09/17 14:35:15;;;;;;;2.03;0.68;;;;;;;;;;10515154;28;20054;-79
2022/09/17 14:40:37;;;;;;;0.70;0.60;;;;;;;;;;10513684;28;20024;-79
2022/09/17 14:45:48;;;;;;;3.63;1.10;;;;;;;;;;10471977;28;20044;-78
2022/09/17 14:51:15;;;;;;;4.68;1.10;;;;;;;;;;10523301;28;20071;-79
2022/09/17 14:56:28;;;;;;;2.15;1.35;;;;;;;;;;10504007;28;20098;-78
2022/09/17 15:01:38;;;;;;;0.98;0.70;;;;;;;;;;10532335;28;20048;-78
2022/09/17 15:06:52;;;;;;;2.88;1.05;;;;;;;;;;10498303;28;20043;-80
2022/09/17 15:12:02;;;;;;;1.92;0.80;;;;;;;;;;10478181;28;20105;-79
2022/09/17 15:17:18;;;;;;;1.58;0.80;;;;;;;;;;10521556;28;20459;-79
2022/09/17 15:27:53;;;;;;;0.75;0.50;;;;;;;;;;10507120;28;20124;-80
2022/09/17 15:33:02;;;;;;;1.05;0.70;;;;;;;;;;10501030;28;20130;-79
2022/09/17 15:38:24;;;;;;;1.15;0.35;;;;;;;;;;10496728;28;20530;-80
2022/09/17 15:43:29;;;;;;;0.85;0.65;;;;;;;;;;10512439;28;20525;-79
2022/09/17 15:48:41;;;;;;;1.92;0.63;;;;;;;;;;10499544;28;20036;-80
2022/09/17 15:53:53;;;;;;;3.80;0.70;;;;;;;;;;10501210;28;20617;-79
2022/09/17 15:59:07;;;;;;;2.33;0.60;;;;;;;;;;10522700;28;20041;-79
2022/09/17 16:04:28;;;;;;;1.20;0.68;;;;;;;;;;10495280;28;20074;-79
2022/09/17 16:09:47;;;;;;;1.50;0.47;;;;;;;;;;10490507;28;20115;-79
2022/09/17 16:14:56;;;;;;;3.53;1.02;;;;;;;;;;10501983;28;20035;-80
2022/09/17 16:20:03;;;;;;;1.88;0.68;;;;;;;;;;10504963;28;20048;-79
2022/09/17 16:25:21;;;;;;;0.90;0.40;;;;;;;;;;10524977;28;20063;-78
2022/09/17 16:30:31;;;;;;;2.28;0.70;;;;;;;;;;10510832;28;20047;-79
2022/09/17 16:35:41;;;;;;;1.27;0.55;;;;;;;;;;10517719;28;20075;-80
2022/09/17 16:40:54;;;;;;;1.02;0.40;;;;;;;;;;10515650;28;20044;-78
2022/09/17 16:46:01;;;;;;;1.05;0.40;;;;;;;;;;10522000;28;20469;-78
2022/09/17 16:51:22;;;;;;;0.73;0.47;;;;;;;;;;10524447;28;20335;-78
2022/09/17 16:56:29;;;;;;;0.65;0.30;;;;;;;;;;10505865;28;20507;-78
2022/09/17 17:01:51;;;;;;;2.93;0.50;;;;;;;;;;10525741;28;20055;-80
2022/09/17 17:07:01;;;;;;;1.83;0.80;;;;;;;;;;10505109;28;20305;-79
2022/09/17 17:12:10;;;;;;;1.02;0.75;;;;;;;;;;10499562;28;20043;-77
2022/09/17 17:17:18;;;;;;;1.10;0.70;;;;;;;;;;10525693;28;20056;-78
2022/09/17 17:22:27;;;;;;;2.70;1.10;;;;;;;;;;10532378;28;20048;-78
2022/09/17 17:27:45;;;;;;;1.57;0.80;;;;;;;;;;10511491;28;20059;-79
2022/09/17 17:33:02;;;;;;;3.75;1.20;;;;;;;;;;10527225;28;20059;-78
2022/09/17 17:38:10;;;;;;;0.52;0.40;;;;;;;;;;10499523;28;21931;-78
2022/09/17 17:43:20;;;;;;;1.30;0.70;;;;;;;;;;10501234;28;20040;-78
2022/09/17 17:48:33;;;;;;;2.92;0.80;;;;;;;;;;10513686;28;20124;-78
2022/09/17 17:53:49;;;;;;;2.85;0.80;;;;;;;;;;10505949;28;20127;-79
2022/09/17 17:59:20;;;;;;;0.63;0.40;;;;;;;;;;10513358;28;20078;-78
2022/09/17 18:04:31;;;;;;;0.45;0.45;;;;;;;;;;10504699;28;20113;-78
2022/09/17 18:09:36;;;;;;;1.63;1.02;;;;;;;;;;10506143;28;20094;-79
2022/09/17 18:14:50;;;;;;;2.63;0.70;;;;;;;;;;10528316;28;20052;-79
2022/09/17 18:20:09;;;;;;;3.22;1.00;;;;;;;;;;10522755;28;20158;-79
2022/09/17 18:25:27;;;;;;;1.65;0.98;;;;;;;;;;10509066;28;20068;-79
2022/09/17 18:30:34;;;;;;;1.85;1.27;;;;;;;;;;10516072;28;20052;-78
2022/09/17 18:35:47;;;;;;;2.72;0.98;;;;;;;;;;10521474;28;20181;-79
2022/09/17 18:40:55;;;;;;;3.90;0.77;;;;;;;;;;10502400;28;20032;-79
2022/09/17 18:46:05;;;;;;;0.77;0.65;;;;;;;;;;10517882;28;20047;-78
2022/09/17 18:51:19;;;;;;;0.82;0.63;;;;;;;;;;10522478;28;20032;-78
2022/09/17 18:56:31;;;;;;;5.72;1.88;;;;;;;;;;10521931;28;20040;-79
2022/09/17 19:01:40;;;;;;;2.72;1.13;;;;;;;;;;10503952;28;20052;-78
2022/09/17 19:06:54;;;;;;;1.35;0.93;;;;;;;;;;10517287;28;20044;-79
2022/09/17 19:17:19;;;;;;;1.90;1.05;;;;;;;;;;10507307;28;20596;-78
2022/09/17 19:22:27;;;;;;;2.25;1.23;;;;;;;;;;10519630;28;20048;-78
2022/09/17 19:27:38;;;;;;;2.55;1.25;;;;;;;;;;10511718;28;20294;-78
2022/09/17 19:32:53;;;;;;;0.95;0.57;;;;;;;;;;10501890;28;20040;-78
2022/09/17 19:38:16;;;;;;;2.83;1.27;;;;;;;;;;10517124;28;20043;-78
2022/09/17 19:43:31;;;;;;;5.70;1.20;;;;;;;;;;10488942;28;20106;-79
2022/09/17 19:48:37;;;;;;;1.88;1.15;;;;;;;;;;10498088;28;20040;-79
2022/09/17 19:54:05;;;;;;;2.05;1.05;;;;;;;;;;10494253;28;20093;-80
2022/09/17 19:59:25;;;;;;;1.90;1.20;;;;;;;;;;10500151;28;20048;-80
2022/09/17 20:09:56;;;;;;;7.25;1.13;;;;;;;;;;10510563;28;20044;-80
2022/09/17 20:15:08;;;;;;;0.93;0.90;;;;;;;;;;10517343;28;20404;-79
2022/09/17 20:20:13;;;;;;;3.13;0.90;;;;;;;;;;10514069;28;20076;-80
2022/09/17 20:25:25;;;;;;;1.23;1.02;;;;;;;;;;10515282;28;20044;-78
2022/09/17 20:30:29;;;;;;;2.30;1.20;;;;;;;;;;10523319;28;20044;-79
2022/09/17 20:35:37;;;;;;;2.72;0.98;;;;;;;;;;10531262;28;20052;-80
2022/09/17 20:40:50;;;;;;;2.30;1.15;;;;;;;;;;10511829;28;20111;-79
2022/09/17 20:45:55;;;;;;;1.48;0.88;;;;;;;;;;10513118;28;20062;-80
2022/09/17 20:51:02;;;;;;;2.47;1.30;;;;;;;;;;10515557;28;20055;-80
2022/09/17 20:56:28;;;;;;;2.13;1.08;;;;;;;;;;10515380;28;21835;-79
2022/09/17 21:01:52;;;;;;;3.38;1.10;;;;;;;;;;10519052;28;20041;-79
2022/09/17 21:07:19;;;;;;;5.10;1.13;;;;;;;;;;10528551;28;20040;-80
2022/09/17 21:12:26;;;;;;;2.20;1.08;;;;;;;;;;10515165;28;20040;-82
2022/09/17 21:17:39;;;;;;;1.00;0.88;;;;;;;;;;10533115;28;20134;-80
2022/09/17 21:22:47;;;;;;;2.53;0.80;;;;;;;;;;10519550;28;20101;-81
2022/09/17 21:27:54;;;;;;;2.83;0.80;;;;;;;;;;10530173;28;20042;-80
2022/09/17 21:33:01;;;;;;;4.30;0.80;;;;;;;;;;10514142;28;20056;-82
2022/09/17 21:38:08;;;;;;;1.38;0.73;;;;;;;;;;10494109;28;20040;-78
2022/09/17 21:43:15;;;;;;;1.35;0.43;;;;;;;;;;10511567;28;20040;-78
2022/09/17 21:48:24;;;;;;;0.90;0.52;;;;;;;;;;10508298;28;20139;-79
2022/09/17 21:53:42;;;;;;;0.32;0.30;;;;;;;;;;10522340;28;20041;-78
2022/09/17 21:59:04;;;;;;;0.30;0.30;;;;;;;;;;10508406;28;20136;-81
2022/09/17 22:04:24;;;;;;;0.75;0.40;;;;;;;;;;10499296;28;20054;-80
2022/09/17 22:09:39;;;;;;;0.40;0.40;;;;;;;;;;10523629;28;20048;-79
2022/09/17 22:14:53;;;;;;;0.50;0.25;;;;;;;;;;10516690;28;20071;-79
2022/09/17 22:20:05;;;;;;;2.17;0.50;;;;;;;;;;10522836;28;20044;-78
2022/09/17 22:25:15;;;;;;;0.63;0.30;;;;;;;;;;10498273;28;20040;-78
2022/09/17 22:30:22;;;;;;;0.32;0.25;;;;;;;;;;10505851;28;20111;-79
2022/09/17 22:35:28;;;;;;;1.15;0.50;;;;;;;;;;10523062;28;20051;-79
2022/09/17 22:40:42;;;;;;;1.40;0.63;;;;;;;;;;10505463;28;20035;-81
2022/09/17 22:45:55;;;;;;;0.77;0.50;;;;;;;;;;10516608;28;20032;-78
2022/09/17 22:51:16;;;;;;;0.95;0.43;;;;;;;;;;10494403;28;20102;-78
2022/09/17 22:56:28;;;;;;;0.35;0.20;;;;;;;;;;10516986;28;20062;-78
2022/09/17 23:01:38;;;;;;;1.88;0.75;;;;;;;;;;10498251;28;20555;-80
2022/09/17 23:06:56;;;;;;;1.80;0.57;;;;;;;;;;10506152;28;20043;-79
2022/09/17 23:12:10;;;;;;;1.63;0.77;;;;;;;;;;10515478;28;20063;-78
2022/09/17 23:17:16;;;;;;;1.52;0.77;;;;;;;;;;10508722;28;20044;-78
2022/09/17 23:22:22;;;;;;;1.60;0.82;;;;;;;;;;10516719;28;20520;-78
2022/09/17 23:27:30;;;;;;;1.65;0.43;;;;;;;;;;10456569;28;20044;-79
2022/09/17 23:32:34;;;;;;;1.77;0.60;;;;;;;;;;10494744;28;20401;-79
2022/09/17 23:43:26;;;;;;;2.35;0.90;;;;;;;;;;10515353;28;20040;-78
2022/09/17 23:48:40;;;;;;;0.32;0.32;;;;;;;;;;10519112;28;20060;-79
2022/09/17 23:53:44;;;;;;;4.32;0.70;;;;;;;;;;10488669;28;20046;-79
2022/09/17 23:58:59;;;;;;;1.52;0.77;;;;;;;;;;10520280;28;20127;-78
